Terminal Aerodrome Forecast
Issued by NWS Charleston, WV

Current Version | Previous Version | Graphics & Text | Print | Product List | Glossary On
Versions: 1 2 3 4 5 6 7 8 9 10 11 12 13 14 15 16 17 18 19 20 21 22 23 24 25 26 27 28 29 30 31
000
FTUS41 KRLX 041120
TAFCRW
TAF
KCRW 041120Z 0412/0512 30004KT 4SM SHRA BR VCTS OVC005CB
     FM041300 VRB03KT 6SM BR BKN009
     FM041500 29003KT P6SM BKN015
     FM041900 29004KT P6SM BKN035
     FM050300 00000KT 6SM BR SCT035
     FM050800 00000KT 2SM BR SCT100=

USA.gov is the U.S. government's official web portal to all federal, state and local government web resources and services.